Time;durP1;ratioP1;P1;durP2;ratioP2;P2;SDS_P1;SDS_P2;PMS_P1;PMS_P2;Temp;Humidity;BMP_temperature;BMP_pressure;BME280_temperature;BME280_humidity;BME280_pressure;Samples;Min_cycle;Max_cycle;Signal;HPM_P1;HPM_P2
2023/01/21 00:00:36;;;;;;;;;;;0.90;99.90;;;;;;4972789;28;19926;-96
2023/01/21 00:03:01;;;;;;;;;;;-0.50;99.90;;;;;;4956739;28;19964;-96
2023/01/21 00:05:28;;;;;;;;;;;-0.10;99.90;;;;;;4958102;28;19922;-96
2023/01/21 00:07:56;;;;;;;;;;;-1.00;99.90;;;;;;4972543;28;20258;-96
2023/01/21 00:10:22;;;;;;;;;;;-1.10;99.90;;;;;;4974709;28;19925;-96
2023/01/21 00:12:47;;;;;;;;;;;-1.10;99.90;;;;;;4973380;28;20020;-95
2023/01/21 00:15:13;;;;;;;;;;;-1.10;99.90;;;;;;4985198;28;19937;-96
2023/01/21 00:17:38;;;;;;;;;;;-1.30;99.90;;;;;;4959578;28;20138;-96
2023/01/21 00:20:04;;;;;;;;;;;-1.40;99.90;;;;;;4957143;28;19926;-96
2023/01/21 00:22:30;;;;;;;;;;;-1.40;99.90;;;;;;4974360;28;19973;-96
2023/01/21 00:24:56;;;;;;;;;;;-0.50;99.90;;;;;;4969288;28;19926;-96
2023/01/21 00:27:21;;;;;;;;;;;-1.50;99.90;;;;;;4986762;28;19925;-96
2023/01/21 00:29:47;;;;;;;;;;;-1.60;99.90;;;;;;5001867;28;19981;-96
2023/01/21 00:32:13;;;;;;;;;;;-1.60;99.90;;;;;;4975149;28;19948;-96
2023/01/21 00:34:39;;;;;;;;;;;-0.50;99.90;;;;;;4959411;28;19926;-95
2023/01/21 00:37:05;;;;;;;;;;;0.80;99.90;;;;;;4958253;28;20497;-96
2023/01/21 00:39:30;;;;;;;;;;;-1.70;99.90;;;;;;4960736;28;19992;-96
2023/01/21 00:41:56;;;;;;;;;;;-1.70;99.90;;;;;;4963530;28;19926;-96
2023/01/21 00:44:22;;;;;;;;;;;-0.90;99.90;;;;;;4975564;28;19934;-96
2023/01/21 00:46:47;;;;;;;;;;;-1.60;99.90;;;;;;4958968;28;19993;-95
2023/01/21 00:49:13;;;;;;;;;;;-1.30;99.90;;;;;;4959669;28;19941;-95
2023/01/21 00:51:38;;;;;;;;;;;-0.30;99.90;;;;;;4960500;28;19926;-96
2023/01/21 00:54:04;;;;;;;;;;;-1.80;99.90;;;;;;4962819;28;19926;-96
2023/01/21 00:56:29;;;;;;;;;;;-1.80;99.90;;;;;;4982719;28;20036;-96
2023/01/21 00:58:55;;;;;;;;;;;-0.40;99.90;;;;;;4978005;28;19926;-96
2023/01/21 01:01:21;;;;;;;;;;;-1.40;99.90;;;;;;4962120;28;19922;-96
2023/01/21 01:03:49;;;;;;;;;;;1.40;99.90;;;;;;4978501;28;19925;-96
2023/01/21 01:06:21;;;;;;;;;;;-2.00;99.90;;;;;;4960957;28;19936;-96
2023/01/21 01:08:51;;;;;;;;;;;-1.90;99.90;;;;;;4985743;28;20010;-96
2023/01/21 01:11:17;;;;;;;;;;;-1.30;99.90;;;;;;4990513;28;19985;-96
2023/01/21 01:13:43;;;;;;;;;;;-2.00;99.90;;;;;;5014964;28;19937;-96
2023/01/21 01:16:09;;;;;;;;;;;-0.90;99.90;;;;;;4984788;28;19925;-95
2023/01/21 01:18:35;;;;;;;;;;;-0.90;99.90;;;;;;4966402;28;19932;-95
2023/01/21 01:21:02;;;;;;;;;;;-2.10;99.90;;;;;;4977500;28;19989;-96
2023/01/21 01:23:28;;;;;;;;;;;-1.10;99.90;;;;;;4978447;28;19922;-96
2023/01/21 01:25:54;;;;;;;;;;;-2.10;99.90;;;;;;4963287;28;19925;-96
2023/01/21 01:28:20;;;;;;;;;;;-2.20;99.90;;;;;;4975644;28;20036;-95
2023/01/21 01:30:46;;;;;;;;;;;-2.10;99.90;;;;;;4975369;28;19926;-95
2023/01/21 01:33:11;;;;;;;;;;;-0.30;99.90;;;;;;4973739;28;19987;-96
2023/01/21 01:35:37;;;;;;;;;;;-2.20;99.90;;;;;;4956696;28;19925;-96
2023/01/21 01:38:06;;;;;;;;;;;-1.90;99.90;;;;;;4953840;28;19945;-95
2023/01/21 01:40:33;;;;;;;;;;;-2.20;99.90;;;;;;4954967;28;19932;-96
2023/01/21 01:42:58;;;;;;;;;;;-2.20;99.90;;;;;;4973560;28;19968;-96
2023/01/21 01:45:24;;;;;;;;;;;0.10;99.90;;;;;;4957565;28;19937;-96
2023/01/21 01:47:57;;;;;;;;;;;-2.20;99.90;;;;;;4988444;28;19933;-95
2023/01/21 01:50:24;;;;;;;;;;;-2.20;99.90;;;;;;4972083;28;19965;-96
2023/01/21 01:52:50;;;;;;;;;;;0.40;99.90;;;;;;4971490;28;20012;-96
2023/01/21 01:55:15;;;;;;;;;;;-2.20;99.90;;;;;;4955786;28;19926;-95
2023/01/21 01:57:44;;;;;;;;;;;0.30;99.90;;;;;;4951232;28;19991;-96
2023/01/21 02:00:11;;;;;;;;;;;-2.30;99.90;;;;;;4971412;28;19941;-96
2023/01/21 02:02:38;;;;;;;;;;;-2.20;99.90;;;;;;4973992;28;19926;-96
2023/01/21 02:05:05;;;;;;;;;;;-2.30;99.90;;;;;;4970817;28;19929;-95
2023/01/21 02:07:41;;;;;;;;;;;-2.30;99.90;;;;;;4971121;28;19945;-94
2023/01/21 02:10:12;;;;;;;;;;;-2.30;99.90;;;;;;4991669;28;19926;-96
2023/01/21 02:12:40;;;;;;;;;;;0.00;99.90;;;;;;4987617;28;20316;-96
2023/01/21 02:15:06;;;;;;;;;;;-2.40;99.90;;;;;;4985904;28;20001;-96
2023/01/21 02:17:38;;;;;;;;;;;-2.50;99.90;;;;;;4967194;28;19926;-96
2023/01/21 02:20:16;;;;;;;;;;;0.80;99.90;;;;;;4970421;28;19929;-96
2023/01/21 02:23:00;;;;;;;;;;;-1.70;99.90;;;;;;4973654;28;20020;-96
2023/01/21 02:25:26;;;;;;;;;;;-2.60;99.90;;;;;;4970971;28;19933;-96
2023/01/21 02:28:01;;;;;;;;;;;-2.60;99.90;;;;;;4973448;28;20282;-96
2023/01/21 02:30:42;;;;;;;;;;;-2.60;99.90;;;;;;4979748;28;19932;-95
2023/01/21 02:33:17;;;;;;;;;;;-2.60;99.90;;;;;;4970282;28;19926;-96
2023/01/21 02:35:45;;;;;;;;;;;-2.60;99.90;;;;;;4970006;28;20378;-96
2023/01/21 02:38:16;;;;;;;;;;;-2.70;99.90;;;;;;4974931;28;19930;-95
2023/01/21 02:41:20;;;;;;;;;;;-2.60;99.90;;;;;;4969048;28;19926;-96
2023/01/21 02:43:50;;;;;;;;;;;-2.60;99.90;;;;;;4940987;28;19926;-96
2023/01/21 02:46:36;;;;;;;;;;;-2.60;99.90;;;;;;4926149;29;20382;-96
2023/01/21 02:49:10;;;;;;;;;;;-2.60;99.90;;;;;;4971052;28;19933;-96
2023/01/21 02:51:36;;;;;;;;;;;-2.60;99.90;;;;;;4983393;28;19926;-96
2023/01/21 02:54:12;;;;;;;;;;;-2.60;99.90;;;;;;4952742;28;19945;-95
2023/01/21 02:56:37;;;;;;;;;;;-2.70;99.90;;;;;;4977318;28;19926;-96
2023/01/21 02:59:04;;;;;;;;;;;-1.50;99.90;;;;;;4955198;28;19930;-95
2023/01/21 03:01:47;;;;;;;;;;;-2.50;99.90;;;;;;4952388;28;19985;-96
2023/01/21 03:04:19;;;;;;;;;;;-2.70;99.90;;;;;;4980593;28;20005;-96
2023/01/21 03:06:54;;;;;;;;;;;-2.70;99.90;;;;;;4969837;28;19925;-95
2023/01/21 03:09:24;;;;;;;;;;;-2.70;99.90;;;;;;4986811;28;19926;-96
2023/01/21 03:11:57;;;;;;;;;;;-2.80;99.90;;;;;;4990973;28;19930;-95
2023/01/21 03:17:27;;;;;;;;;;;-2.80;99.90;;;;;;4983413;28;19926;-96
2023/01/21 03:20:00;;;;;;;;;;;-2.80;99.90;;;;;;4986045;28;19937;-95
2023/01/21 03:22:28;;;;;;;;;;;-2.80;99.90;;;;;;4976880;28;19953;-95
2023/01/21 03:24:54;;;;;;;;;;;-2.80;99.90;;;;;;4982189;28;19926;-96
2023/01/21 03:27:22;;;;;;;;;;;-2.80;99.90;;;;;;4982743;28;20341;-96
2023/01/21 03:29:49;;;;;;;;;;;0.20;99.90;;;;;;4970639;28;19925;-95
2023/01/21 03:32:16;;;;;;;;;;;-0.70;99.90;;;;;;4968693;28;19925;-96
2023/01/21 03:34:44;;;;;;;;;;;-1.50;99.90;;;;;;4951461;28;19936;-95
2023/01/21 03:37:14;;;;;;;;;;;-2.70;99.90;;;;;;4984807;28;19934;-95
2023/01/21 03:39:40;;;;;;;;;;;-2.70;99.90;;;;;;4955958;28;19926;-94
2023/01/21 03:42:06;;;;;;;;;;;-1.20;99.90;;;;;;4972502;28;19936;-95
2023/01/21 03:44:32;;;;;;;;;;;-1.10;99.90;;;;;;4968283;28;19926;-96
2023/01/21 03:47:18;;;;;;;;;;;-0.10;99.90;;;;;;4991304;28;19937;-95
2023/01/21 03:50:16;;;;;;;;;;;-1.40;99.90;;;;;;4967221;28;19977;-95
2023/01/21 03:52:42;;;;;;;;;;;-2.60;99.90;;;;;;4941649;28;19949;-96
2023/01/21 03:55:08;;;;;;;;;;;-0.90;99.90;;;;;;4963046;28;20292;-96
2023/01/21 03:57:34;;;;;;;;;;;-2.40;99.90;;;;;;4976953;28;19926;-96
2023/01/21 04:00:00;;;;;;;;;;;-2.30;99.90;;;;;;4961700;28;19937;-96
2023/01/21 04:02:25;;;;;;;;;;;-2.30;99.90;;;;;;4957933;28;19926;-96
2023/01/21 04:04:52;;;;;;;;;;;-1.20;99.90;;;;;;4984449;28;19965;-96
2023/01/21 04:07:17;;;;;;;;;;;0.10;99.90;;;;;;4964499;28;19926;-96
2023/01/21 04:09:43;;;;;;;;;;;-2.10;99.90;;;;;;4974158;28;19933;-96
2023/01/21 04:12:09;;;;;;;;;;;-0.50;99.90;;;;;;4969644;28;20375;-96
2023/01/21 04:14:35;;;;;;;;;;;-2.00;99.90;;;;;;4965949;29;19984;-96
2023/01/21 04:17:00;;;;;;;;;;;-2.00;99.90;;;;;;4963295;28;19937;-96
2023/01/21 04:19:26;;;;;;;;;;;0.00;99.90;;;;;;4943863;28;20005;-96
2023/01/21 04:21:51;;;;;;;;;;;-1.10;99.90;;;;;;4953564;28;21565;-95
2023/01/21 04:24:17;;;;;;;;;;;-1.70;99.90;;;;;;4968959;28;19933;-95
2023/01/21 04:26:43;;;;;;;;;;;-1.80;99.90;;;;;;4953693;28;19926;-96
2023/01/21 04:29:08;;;;;;;;;;;-1.80;99.90;;;;;;4953486;28;20434;-96
2023/01/21 04:31:34;;;;;;;;;;;-1.80;99.90;;;;;;4953260;28;19984;-96
2023/01/21 04:33:59;;;;;;;;;;;-0.10;99.90;;;;;;4954608;28;19936;-96
2023/01/21 04:36:25;;;;;;;;;;;-1.80;99.90;;;;;;4948690;28;19926;-95
2023/01/21 04:38:51;;;;;;;;;;;-1.70;99.90;;;;;;4954213;28;19941;-95
2023/01/21 04:41:16;;;;;;;;;;;-1.70;99.90;;;;;;4949733;29;20476;-96
2023/01/21 04:43:42;;;;;;;;;;;-1.70;99.90;;;;;;4962880;28;20025;-96
2023/01/21 04:46:08;;;;;;;;;;;-1.70;99.90;;;;;;4969044;28;19973;-95
2023/01/21 04:48:33;;;;;;;;;;;-1.70;99.90;;;;;;4952009;28;19986;-96
2023/01/21 04:50:59;;;;;;;;;;;-0.90;99.90;;;;;;4953705;28;19926;-96
2023/01/21 04:53:24;;;;;;;;;;;-1.00;99.90;;;;;;4968173;28;19925;-95
2023/01/21 04:55:51;;;;;;;;;;;-0.90;99.90;;;;;;4947561;28;19953;-96
2023/01/21 04:58:17;;;;;;;;;;;-1.70;99.90;;;;;;4968379;28;19997;-95
2023/01/21 05:00:42;;;;;;;;;;;-1.80;99.90;;;;;;4952791;28;19930;-96
2023/01/21 05:03:08;;;;;;;;;;;-1.80;99.90;;;;;;4968623;28;19926;-96
2023/01/21 05:05:33;;;;;;;;;;;-1.20;99.90;;;;;;4959604;29;19926;-96
2023/01/21 05:07:59;;;;;;;;;;;-1.20;99.90;;;;;;4952730;28;20282;-96
2023/01/21 05:10:25;;;;;;;;;;;-1.70;99.90;;;;;;4951914;28;19927;-96
2023/01/21 05:12:50;;;;;;;;;;;-1.00;99.90;;;;;;4946335;29;19930;-96
2023/01/21 05:15:16;;;;;;;;;;;-1.40;99.90;;;;;;4936699;29;19926;-96
2023/01/21 05:17:42;;;;;;;;;;;-1.70;99.90;;;;;;4957925;28;19958;-96
2023/01/21 05:20:08;;;;;;;;;;;0.80;99.90;;;;;;4959934;28;20414;-96
2023/01/21 05:22:33;;;;;;;;;;;-1.60;99.90;;;;;;4983686;28;19933;-96
2023/01/21 05:24:59;;;;;;;;;;;-1.60;99.90;;;;;;4963304;28;19927;-95
2023/01/21 05:27:26;;;;;;;;;;;-1.50;99.90;;;;;;4947630;29;20009;-95
2023/01/21 05:29:52;;;;;;;;;;;-1.50;99.90;;;;;;4961825;28;19945;-95
2023/01/21 05:32:18;;;;;;;;;;;-1.50;99.90;;;;;;4948954;28;19978;-96
2023/01/21 05:34:43;;;;;;;;;;;-1.00;99.90;;;;;;4972818;28;19926;-96
2023/01/21 05:37:10;;;;;;;;;;;-1.50;99.90;;;;;;4953611;28;19997;-96
2023/01/21 05:39:35;;;;;;;;;;;-0.30;99.90;;;;;;4992551;28;19925;-96
2023/01/21 05:42:01;;;;;;;;;;;-1.50;99.90;;;;;;4956971;28;19949;-96
2023/01/21 05:44:26;;;;;;;;;;;1.40;99.90;;;;;;4947108;29;19926;-96
2023/01/21 05:46:52;;;;;;;;;;;0.00;99.90;;;;;;4967502;28;19987;-96
2023/01/21 05:49:18;;;;;;;;;;;-1.50;99.90;;;;;;4949829;28;19972;-96
2023/01/21 05:51:44;;;;;;;;;;;-1.50;99.90;;;;;;4967451;28;19933;-96
2023/01/21 05:54:09;;;;;;;;;;;0.00;99.90;;;;;;4950315;28;19926;-96
2023/01/21 05:56:35;;;;;;;;;;;-1.60;99.90;;;;;;4966893;28;20017;-96
2023/01/21 05:59:01;;;;;;;;;;;-1.60;99.90;;;;;;4967099;28;19988;-95
2023/01/21 06:01:33;;;;;;;;;;;-1.60;99.90;;;;;;4967386;28;19933;-96
2023/01/21 06:03:58;;;;;;;;;;;-1.60;99.90;;;;;;4948040;29;19989;-96
2023/01/21 06:06:24;;;;;;;;;;;-0.80;99.90;;;;;;4940907;28;19985;-96
2023/01/21 06:08:49;;;;;;;;;;;-1.70;99.90;;;;;;4966474;28;19933;-95
2023/01/21 06:11:15;;;;;;;;;;;-1.80;99.90;;;;;;4949130;28;19926;-95
2023/01/21 06:13:41;;;;;;;;;;;0.40;99.90;;;;;;4982382;28;19937;-95
2023/01/21 06:16:06;;;;;;;;;;;-1.80;99.90;;;;;;4946805;29;19926;-96
2023/01/21 06:18:33;;;;;;;;;;;-1.90;99.90;;;;;;4965080;28;19927;-96
2023/01/21 06:20:59;;;;;;;;;;;-2.00;99.90;;;;;;4981332;28;20357;-95
2023/01/21 06:23:25;;;;;;;;;;;-2.00;99.90;;;;;;4948665;28;19973;-95
2023/01/21 06:25:50;;;;;;;;;;;-2.10;99.90;;;;;;4967192;28;20394;-96
2023/01/21 06:28:16;;;;;;;;;;;0.10;99.90;;;;;;4964971;28;19926;-95
2023/01/21 06:30:42;;;;;;;;;;;-1.90;99.90;;;;;;4946550;28;19927;-95
2023/01/21 06:33:07;;;;;;;;;;;-2.20;99.90;;;;;;4946548;29;19927;-96
2023/01/21 06:35:35;;;;;;;;;;;-0.50;99.90;;;;;;4956488;28;19926;-96
2023/01/21 06:38:02;;;;;;;;;;;-2.20;99.90;;;;;;4950171;28;19926;-96
2023/01/21 06:40:28;;;;;;;;;;;-4.00;99.90;;;;;;4962294;29;19930;-96
2023/01/21 06:42:54;;;;;;;;;;;-0.80;99.90;;;;;;4934564;29;19933;-95
2023/01/21 06:45:19;;;;;;;;;;;0.30;99.90;;;;;;4963014;28;20016;-93
2023/01/21 06:47:45;;;;;;;;;;;-3.00;99.90;;;;;;4965928;28;19926;-95
2023/01/21 06:50:12;;;;;;;;;;;-2.20;99.90;;;;;;4950451;28;19926;-96
2023/01/21 06:52:38;;;;;;;;;;;-2.20;99.90;;;;;;4964814;28;19946;-96
2023/01/21 06:55:04;;;;;;;;;;;-2.20;99.90;;;;;;4969407;28;19926;-95
2023/01/21 06:57:30;;;;;;;;;;;-2.30;99.90;;;;;;4963060;28;20001;-95
2023/01/21 06:59:55;;;;;;;;;;;-2.00;99.90;;;;;;4939420;29;19926;-92
2023/01/21 07:02:21;;;;;;;;;;;-2.30;99.90;;;;;;4952667;28;19927;-94
2023/01/21 07:04:49;;;;;;;;;;;-1.50;99.90;;;;;;4949865;28;19926;-96
2023/01/21 07:07:15;;;;;;;;;;;-2.40;99.90;;;;;;4946567;28;19950;-94
2023/01/21 07:09:40;;;;;;;;;;;-2.50;99.90;;;;;;4959389;28;19930;-94
2023/01/21 07:12:06;;;;;;;;;;;-2.40;99.90;;;;;;4946655;29;19969;-95
2023/01/21 07:14:32;;;;;;;;;;;-2.60;99.90;;;;;;4945868;29;19933;-94
2023/01/21 07:16:58;;;;;;;;;;;-2.60;99.90;;;;;;4947439;28;19926;-94
2023/01/21 07:19:24;;;;;;;;;;;-2.70;99.90;;;;;;4948990;28;19961;-94
2023/01/21 07:21:50;;;;;;;;;;;-2.70;99.90;;;;;;4950222;28;20389;-93
2023/01/21 07:24:16;;;;;;;;;;;-1.30;99.90;;;;;;4946520;29;19926;-95
2023/01/21 07:26:42;;;;;;;;;;;-2.80;99.90;;;;;;4963106;28;19933;-95
2023/01/21 07:29:08;;;;;;;;;;;-2.80;99.90;;;;;;4952971;28;19926;-94
2023/01/21 07:31:33;;;;;;;;;;;-2.90;99.90;;;;;;4952926;28;19926;-94
2023/01/21 07:33:59;;;;;;;;;;;-2.90;99.90;;;;;;4969687;28;19926;-95
2023/01/21 07:36:28;;;;;;;;;;;-2.90;99.90;;;;;;4985600;28;19937;-95
2023/01/21 07:38:54;;;;;;;;;;;-2.20;99.90;;;;;;4953145;28;19926;-96
2023/01/21 07:41:19;;;;;;;;;;;-0.10;99.90;;;;;;4968561;28;19985;-94
2023/01/21 07:43:46;;;;;;;;;;;-2.90;99.90;;;;;;4949918;29;20351;-94
2023/01/21 07:46:14;;;;;;;;;;;-3.00;99.90;;;;;;4965412;28;19986;-94
2023/01/21 07:48:39;;;;;;;;;;;-3.00;99.90;;;;;;4958949;29;19927;-95
2023/01/21 07:51:05;;;;;;;;;;;-0.90;99.90;;;;;;4963279;28;19937;-95
2023/01/21 07:53:31;;;;;;;;;;;-3.00;99.90;;;;;;4966979;28;19937;-94
2023/01/21 07:55:56;;;;;;;;;;;-3.10;99.90;;;;;;4966472;28;19930;-95
2023/01/21 07:58:22;;;;;;;;;;;-3.10;99.90;;;;;;4950065;28;19933;-95
2023/01/21 08:00:47;;;;;;;;;;;-3.10;99.90;;;;;;4949926;29;20395;-95
2023/01/21 08:03:13;;;;;;;;;;;-2.90;99.90;;;;;;4985291;28;19926;-93
2023/01/21 08:05:39;;;;;;;;;;;-3.10;99.90;;;;;;4949438;28;19937;-96
2023/01/21 08:08:04;;;;;;;;;;;-3.10;99.90;;;;;;4955243;28;20002;-95
2023/01/21 08:10:30;;;;;;;;;;;-3.00;99.90;;;;;;4966032;28;19997;-94
2023/01/21 08:12:56;;;;;;;;;;;-3.10;99.90;;;;;;4962784;28;19941;-95
2023/01/21 08:15:22;;;;;;;;;;;-3.10;99.90;;;;;;4971034;28;19956;-96
2023/01/21 08:17:47;;;;;;;;;;;-3.10;99.90;;;;;;4971721;28;19969;-94
2023/01/21 08:20:14;;;;;;;;;;;-3.10;99.90;;;;;;4955228;28;19958;-94
2023/01/21 08:22:39;;;;;;;;;;;-3.20;99.90;;;;;;4971104;28;19972;-94
2023/01/21 08:25:05;;;;;;;;;;;-3.10;99.90;;;;;;4952145;28;20354;-93
2023/01/21 08:27:31;;;;;;;;;;;-3.10;99.90;;;;;;4955296;28;19926;-94
2023/01/21 08:29:57;;;;;;;;;;;-3.10;99.90;;;;;;4971774;28;19965;-94
2023/01/21 08:32:22;;;;;;;;;;;-3.10;99.90;;;;;;4953396;28;19989;-93
2023/01/21 08:34:48;;;;;;;;;;;-3.00;99.90;;;;;;4971697;28;20012;-95
2023/01/21 08:37:14;;;;;;;;;;;-3.00;99.90;;;;;;4959041;28;19994;-93
2023/01/21 08:39:40;;;;;;;;;;;-3.00;99.90;;;;;;4955135;28;19930;-93
2023/01/21 08:42:05;;;;;;;;;;;-3.00;99.90;;;;;;4954629;28;19937;-94
2023/01/21 08:44:31;;;;;;;;;;;-3.10;99.90;;;;;;4968727;28;19926;-94
2023/01/21 08:46:56;;;;;;;;;;;-3.00;99.90;;;;;;4952193;28;19926;-94
2023/01/21 08:49:22;;;;;;;;;;;-3.00;99.90;;;;;;4981189;28;19937;-94
2023/01/21 08:51:48;;;;;;;;;;;-3.00;99.90;;;;;;4987103;28;19930;-95
2023/01/21 08:54:14;;;;;;;;;;;-2.90;99.90;;;;;;4948895;28;20012;-94
2023/01/21 08:56:40;;;;;;;;;;;-2.90;99.90;;;;;;4971438;28;19979;-95
2023/01/21 08:59:06;;;;;;;;;;;-2.90;99.90;;;;;;4951426;28;19926;-94
2023/01/21 09:01:32;;;;;;;;;;;-2.90;99.90;;;;;;4964030;28;20033;-94
2023/01/21 09:03:59;;;;;;;;;;;-3.00;99.90;;;;;;4971185;28;19926;-94
2023/01/21 09:06:26;;;;;;;;;;;-1.40;99.90;;;;;;4982621;28;19933;-94
2023/01/21 09:08:52;;;;;;;;;;;-2.90;99.90;;;;;;4978156;28;20020;-95
2023/01/21 09:11:18;;;;;;;;;;;-2.90;99.90;;;;;;4949730;28;19926;-94
2023/01/21 09:13:44;;;;;;;;;;;-2.90;99.90;;;;;;4967842;28;19930;-95
2023/01/21 09:16:11;;;;;;;;;;;-2.40;99.90;;;;;;4966539;28;19950;-94
2023/01/21 09:18:37;;;;;;;;;;;-1.50;99.90;;;;;;4962670;28;19977;-94
2023/01/21 09:21:03;;;;;;;;;;;-2.70;99.90;;;;;;4951524;28;19930;-94
2023/01/21 09:23:33;;;;;;;;;;;-2.60;99.90;;;;;;4977457;28;19927;-94
2023/01/21 09:25:59;;;;;;;;;;;-2.40;99.90;;;;;;4949698;28;19927;-94
2023/01/21 09:28:25;;;;;;;;;;;-2.50;99.90;;;;;;4966734;28;19964;-94
2023/01/21 09:30:57;;;;;;;;;;;-2.30;99.90;;;;;;4964921;28;20370;-94
2023/01/21 09:33:23;;;;;;;;;;;-2.30;99.90;;;;;;4951185;28;20319;-96
2023/01/21 09:35:56;;;;;;;;;;;-0.80;99.90;;;;;;4948099;29;19938;-95
2023/01/21 09:38:22;;;;;;;;;;;-2.00;99.90;;;;;;4975359;28;20077;-96
2023/01/21 09:40:48;;;;;;;;;;;-2.20;99.90;;;;;;4985524;28;19926;-95
2023/01/21 09:43:19;;;;;;;;;;;-2.00;99.90;;;;;;4967555;28;20029;-94
2023/01/21 09:45:46;;;;;;;;;;;-2.00;99.90;;;;;;4955657;28;19973;-95
2023/01/21 09:48:32;;;;;;;;;;;-0.40;99.90;;;;;;4966859;28;19950;-94
2023/01/21 09:50:59;;;;;;;;;;;-1.00;99.90;;;;;;4960229;28;19926;-93
2023/01/21 09:53:44;;;;;;;;;;;-1.80;99.90;;;;;;4965740;28;19926;-94
2023/01/21 09:56:16;;;;;;;;;;;-1.70;99.90;;;;;;4987809;28;19926;-95
2023/01/21 09:58:47;;;;;;;;;;;-1.60;99.90;;;;;;4959479;29;20037;-94
2023/01/21 10:01:15;;;;;;;;;;;-0.80;99.90;;;;;;4979859;28;19926;-94
2023/01/21 10:03:41;;;;;;;;;;;-1.00;99.90;;;;;;4966489;28;19930;-94
2023/01/21 10:06:16;;;;;;;;;;;-0.80;99.90;;;;;;4965456;28;19994;-93
2023/01/21 10:08:48;;;;;;;;;;;-1.50;99.90;;;;;;4966391;28;19926;-94
2023/01/21 10:11:14;;;;;;;;;;;-1.40;99.90;;;;;;4969907;28;19932;-93
2023/01/21 10:13:51;;;;;;;;;;;-1.30;99.90;;;;;;4970242;28;20012;-95
2023/01/21 10:16:17;;;;;;;;;;;-1.20;99.90;;;;;;4967886;28;20369;-95
2023/01/21 10:18:44;;;;;;;;;;;-1.20;99.90;;;;;;4973032;28;19933;-95
2023/01/21 10:21:13;;;;;;;;;;;-1.00;99.90;;;;;;4966718;28;19926;-95
2023/01/21 10:23:42;;;;;;;;;;;-0.90;99.90;;;;;;4958675;28;19926;-94
2023/01/21 10:26:08;;;;;;;;;;;0.60;99.90;;;;;;4994340;28;19926;-95
2023/01/21 10:28:36;;;;;;;;;;;-0.60;99.90;;;;;;4982500;28;19926;-95
2023/01/21 10:31:06;;;;;;;;;;;0.00;99.90;;;;;;4954700;28;19926;-94
2023/01/21 10:33:32;;;;;;;;;;;-0.40;99.90;;;;;;4984001;28;19970;-95
2023/01/21 10:35:58;;;;;;;;;;;-0.20;99.90;;;;;;4959836;28;19954;-96
2023/01/21 10:38:26;;;;;;;;;;;-0.10;99.90;;;;;;4996314;28;19988;-96
2023/01/21 10:41:07;;;;;;;;;;;0.00;99.90;;;;;;4990381;28;19926;-96
2023/01/21 10:43:56;;;;;;;;;;;0.10;99.90;;;;;;4979852;28;19926;-96
2023/01/21 10:46:31;;;;;;;;;;;0.20;99.90;;;;;;5041369;23;19929;-91
2023/01/21 10:49:19;;;;;;;;;;;0.40;99.90;;;;;;4986498;28;19926;-90
2023/01/21 10:52:22;;;;;;;;;;;;;;;;;;;;;
2023/01/21 10:55:19;;;;;;;;;;;1.00;99.90;;;;;;5012868;28;19932;-90
2023/01/21 10:57:55;;;;;;;;;;;-1.30;99.90;;;;;;4993089;28;20388;-91
2023/01/21 11:00:28;;;;;;;;;;;1.30;99.90;;;;;;4996481;28;19936;-90
2023/01/21 11:03:14;;;;;;;;;;;0.70;99.90;;;;;;5000547;28;19926;-90
2023/01/21 11:05:40;;;;;;;;;;;0.90;99.90;;;;;;5021496;28;19926;-88
2023/01/21 11:08:06;;;;;;;;;;;1.20;99.90;;;;;;5004758;28;19926;-89
2023/01/21 11:10:35;;;;;;;;;;;3.10;99.90;;;;;;4992844;28;19929;-89
2023/01/21 11:13:00;;;;;;;;;;;-1.60;99.90;;;;;;4991299;28;20269;-88
2023/01/21 11:15:29;;;;;;;;;;;1.10;99.90;;;;;;4999918;28;19927;-89
2023/01/21 11:17:57;;;;;;;;;;;1.90;99.90;;;;;;4997234;28;19925;-89
2023/01/21 11:20:32;;;;;;;;;;;1.50;99.90;;;;;;4995903;28;19925;-89
2023/01/21 11:22:57;;;;;;;;;;;1.60;99.90;;;;;;4999841;28;19976;-89
2023/01/21 11:25:25;;;;;;;;;;;1.40;99.90;;;;;;4995613;28;19969;-89
2023/01/21 11:27:51;;;;;;;;;;;2.00;99.90;;;;;;4995351;28;20016;-89
2023/01/21 11:30:48;;;;;;;;;;;2.10;99.90;;;;;;4995690;28;20071;-91
2023/01/21 11:33:25;;;;;;;;;;;2.10;99.90;;;;;;4982500;28;20440;-91
2023/01/21 11:35:56;;;;;;;;;;;1.90;99.90;;;;;;5010189;28;19933;-89
2023/01/21 11:38:28;;;;;;;;;;;1.90;99.90;;;;;;4978007;28;20412;-91
2023/01/21 11:41:02;;;;;;;;;;;1.80;99.90;;;;;;4993840;28;19926;-90
2023/01/21 11:43:32;;;;;;;;;;;1.90;99.90;;;;;;4994072;28;19983;-89
2023/01/21 11:45:59;;;;;;;;;;;2.20;99.90;;;;;;5010509;28;20063;-95
2023/01/21 11:48:42;;;;;;;;;;;1.70;99.90;;;;;;5010104;28;20361;-92
2023/01/21 11:51:09;;;;;;;;;;;2.50;99.90;;;;;;5006730;28;19972;-89
2023/01/21 11:53:36;;;;;;;;;;;4.00;99.90;;;;;;5018089;28;19991;-89
2023/01/21 11:56:02;;;;;;;;;;;4.10;99.90;;;;;;5001278;28;19936;-89
2023/01/21 11:58:30;;;;;;;;;;;2.40;99.90;;;;;;5007912;28;19925;-89
2023/01/21 12:04:43;;;;;;;;;;;0.50;99.90;;;;;;5014500;28;19925;-96
2023/01/21 12:07:34;;;;;;;;;;;3.10;99.90;;;;;;5016738;28;19972;-92
2023/01/21 12:10:04;;;;;;;;;;;0.80;99.90;;;;;;5010782;28;19925;-91
2023/01/21 12:13:00;;;;;;;;;;;2.00;99.90;;;;;;4986114;28;19934;-93
2023/01/21 12:16:04;;;;;;;;;;;2.90;99.90;;;;;;5009530;28;19968;-91
2023/01/21 12:18:54;;;;;;;;;;;2.90;99.90;;;;;;5025189;28;20068;-90
2023/01/21 12:21:47;;;;;;;;;;;2.80;99.90;;;;;;4999063;28;19932;-91
2023/01/21 12:25:13;;;;;;;;;;;;;;;;;;;;;
2023/01/21 12:27:56;;;;;;;;;;;1.50;99.90;;;;;;5014623;28;19925;-91
2023/01/21 12:30:37;;;;;;;;;;;5.50;99.90;;;;;;5004677;28;19925;-91
2023/01/21 12:33:10;;;;;;;;;;;4.70;99.90;;;;;;5017454;28;19954;-90
2023/01/21 12:35:39;;;;;;;;;;;3.20;99.90;;;;;;5011323;28;19933;-90
2023/01/21 12:38:14;;;;;;;;;;;3.00;99.90;;;;;;5018649;28;20265;-92
2023/01/21 12:40:51;;;;;;;;;;;3.00;99.90;;;;;;5016645;28;20061;-92
2023/01/21 12:43:33;;;;;;;;;;;3.00;99.90;;;;;;5003288;28;19932;-92
2023/01/21 12:46:34;;;;;;;;;;;;;;;;;;;;;
2023/01/21 12:52:50;;;;;;;;;;;4.60;99.90;;;;;;5004419;28;19925;-93
2023/01/21 12:55:34;;;;;;;;;;;1.60;99.90;;;;;;4962133;28;20415;-93
2023/01/21 12:58:23;;;;;;;;;;;1.80;99.90;;;;;;4998255;28;19925;-91
2023/01/21 13:01:00;;;;;;;;;;;5.80;99.90;;;;;;5018196;28;19929;-91
2023/01/21 13:03:45;;;;;;;;;;;;;;;;;;;;;
2023/01/21 13:06:21;;;;;;;;;;;3.30;99.90;;;;;;5028786;28;19929;-91
2023/01/21 13:12:17;;;;;;;;;;;1.90;99.90;;;;;;5021750;28;20360;-90
2023/01/21 13:18:15;;;;;;;;;;;2.90;99.90;;;;;;5009506;28;19912;-94
2023/01/21 13:21:09;;;;;;;;;;;2.80;99.90;;;;;;5024152;28;19936;-93
2023/01/21 13:23:54;;;;;;;;;;;3.70;99.90;;;;;;5009889;28;19929;-91
2023/01/21 13:29:46;;;;;;;;;;;3.00;99.90;;;;;;5023041;28;19925;-91
2023/01/21 13:32:29;;;;;;;;;;;2.60;99.90;;;;;;5001400;28;19933;-90
2023/01/21 13:35:17;;;;;;;;;;;2.80;99.90;;;;;;5018123;28;19975;-91
2023/01/21 13:38:00;;;;;;;;;;;2.70;99.90;;;;;;5013363;28;20411;-92
2023/01/21 13:41:10;;;;;;;;;;;1.90;99.90;;;;;;4999049;28;19975;-92
2023/01/21 13:47:00;;;;;;;;;;;3.40;99.90;;;;;;5002575;28;19930;-93
2023/01/21 13:49:47;;;;;;;;;;;5.10;99.90;;;;;;5005453;28;19925;-91
2023/01/21 13:52:31;;;;;;;;;;;3.10;99.90;;;;;;5028503;28;19936;-92
2023/01/21 13:55:17;;;;;;;;;;;3.20;99.90;;;;;;5021685;28;19933;-92
2023/01/21 13:57:59;;;;;;;;;;;;;;;;;;;;;
2023/01/21 14:00:31;;;;;;;;;;;3.20;99.90;;;;;;5019505;28;19925;-93
2023/01/21 14:03:24;;;;;;;;;;;3.50;99.90;;;;;;5022396;28;19968;-92
2023/01/21 14:13:00;;;;;;;;;;;3.00;99.90;;;;;;4989420;28;19925;-90
2023/01/21 14:15:28;;;;;;;;;;;1.40;99.90;;;;;;4972850;28;19964;-92
2023/01/21 14:18:13;;;;;;;;;;;3.30;99.90;;;;;;4978944;28;19953;-93
2023/01/21 14:21:01;;;;;;;;;;;3.30;99.90;;;;;;4964396;28;19972;-93
2023/01/21 14:23:35;;;;;;;;;;;4.50;99.90;;;;;;4962557;28;19926;-92
2023/01/21 14:29:29;;;;;;;;;;;2.60;99.90;;;;;;4981034;28;20301;-93
2023/01/21 14:32:33;;;;;;;;;;;;;;;;;;;;;
2023/01/21 14:35:31;;;;;;;;;;;;;;;;;;;;;
2023/01/21 14:38:06;;;;;;;;;;;2.70;99.90;;;;;;4994355;28;19925;-92
2023/01/21 14:40:56;;;;;;;;;;;3.10;99.90;;;;;;5024749;28;19939;-95
2023/01/21 14:47:13;;;;;;;;;;;;;;;;;;;;;
2023/01/21 14:53:34;;;;;;;;;;;2.50;99.90;;;;;;4958332;28;19927;-92
2023/01/21 14:56:12;;;;;;;;;;;2.20;99.90;;;;;;4978246;28;19926;-92
2023/01/21 14:58:40;;;;;;;;;;;2.50;99.90;;;;;;5006058;28;20008;-94
2023/01/21 15:01:34;;;;;;;;;;;0.60;99.90;;;;;;5013061;28;20020;-90
2023/01/21 15:07:47;;;;;;;;;;;;;;;;;;;;;
2023/01/21 15:13:58;;;;;;;;;;;2.40;99.90;;;;;;5043796;28;19990;-91
2023/01/21 15:20:29;;;;;;;;;;;2.00;99.90;;;;;;4990788;28;20012;-93
2023/01/21 15:29:42;;;;;;;;;;;0.70;99.90;;;;;;4958241;28;19930;-86
2023/01/21 15:32:16;;;;;;;;;;;1.80;99.90;;;;;;4944157;28;19926;-88
2023/01/21 15:34:43;;;;;;;;;;;1.90;99.90;;;;;;4960522;28;20006;-86
2023/01/21 15:37:16;;;;;;;;;;;4.50;99.90;;;;;;5009643;28;20356;-87
2023/01/21 15:39:42;;;;;;;;;;;2.20;99.90;;;;;;5013437;28;19933;-87
2023/01/21 15:42:25;;;;;;;;;;;2.90;99.90;;;;;;4998304;28;20388;-88
2023/01/21 15:45:10;;;;;;;;;;;1.60;99.90;;;;;;5014432;28;20349;-88
2023/01/21 15:47:35;;;;;;;;;;;1.70;99.90;;;;;;4997000;28;19925;-87